Time;durP1;ratioP1;P1;durP2;ratioP2;P2;SDS_P1;SDS_P2;PMS_P1;PMS_P2;Temp;Humidity;BMP_temperature;BMP_pressure;BME280_temperature;BME280_humidity;BME280_pressure;Samples;Min_cycle;Max_cycle;Signal;HPM_P1;HPM_P2
2021/09/29 00:00:32;;;;;;;12.27;7.97;;;8.90;99.90;;;;;;5249871;28;20200;-69
2021/09/29 00:03:08;;;;;;;11.33;8.03;;;8.90;99.90;;;;;;5249312;28;20229;-67
2021/09/29 00:05:40;;;;;;;13.70;9.20;;;8.90;99.90;;;;;;5249861;28;20293;-71
2021/09/29 00:08:12;;;;;;;12.07;9.07;;;8.80;99.90;;;;;;5249934;28;20645;-67
2021/09/29 00:10:44;;;;;;;11.63;8.87;;;8.80;99.90;;;;;;5249752;28;20208;-68
2021/09/29 00:13:17;;;;;;;11.23;8.13;;;8.80;99.90;;;;;;5249855;28;20225;-69
2021/09/29 00:15:48;;;;;;;12.80;9.00;;;8.70;99.90;;;;;;5249258;28;20501;-68
2021/09/29 00:18:24;;;;;;;12.83;9.13;;;8.70;99.90;;;;;;5248771;28;20293;-69
2021/09/29 00:20:56;;;;;;;11.57;8.90;;;8.70;99.90;;;;;;5250002;28;20221;-69
2021/09/29 00:23:28;;;;;;;13.43;8.63;;;8.70;99.90;;;;;;5249826;28;20220;-70
2021/09/29 00:26:00;;;;;;;13.27;9.57;;;8.60;99.90;;;;;;5248395;28;20547;-68
2021/09/29 00:28:34;;;;;;;13.47;9.43;;;8.60;99.90;;;;;;5249354;28;20239;-68
2021/09/29 00:31:11;;;;;;;11.30;8.37;;;8.50;99.90;;;;;;5248617;28;20204;-71
2021/09/29 00:33:47;;;;;;;13.87;9.57;;;8.50;99.90;;;;;;5249536;28;20229;-68
2021/09/29 00:36:19;;;;;;;10.63;9.07;;;8.50;99.90;;;;;;5248717;28;20627;-70
2021/09/29 00:38:54;;;;;;;14.50;9.67;;;8.50;99.90;;;;;;5249809;28;20244;-70
2021/09/29 00:41:26;;;;;;;15.40;9.50;;;8.40;99.90;;;;;;5250632;28;20322;-69
2021/09/29 00:43:58;;;;;;;14.97;10.10;;;8.40;99.90;;;;;;5249134;28;20232;-67
2021/09/29 00:46:30;;;;;;;12.90;9.47;;;8.40;99.90;;;;;;5249779;28;20531;-68
2021/09/29 00:49:02;;;;;;;12.30;9.80;;;8.30;99.90;;;;;;5249117;28;20306;-71
2021/09/29 00:51:36;;;;;;;13.10;9.53;;;8.30;99.90;;;;;;5249474;28;20577;-70
2021/09/29 00:54:08;;;;;;;15.67;10.23;;;8.30;99.90;;;;;;5249293;28;20224;-68
2021/09/29 00:56:43;;;;;;;11.77;9.10;;;8.30;99.90;;;;;;5249428;28;20677;-73
2021/09/29 00:59:15;;;;;;;11.83;8.93;;;8.30;99.90;;;;;;5249475;28;20557;-68
2021/09/29 01:01:48;;;;;;;15.83;10.13;;;8.30;99.90;;;;;;5247943;28;20245;-69
2021/09/29 01:04:23;;;;;;;13.33;9.60;;;8.30;99.90;;;;;;5248955;28;20320;-68
2021/09/29 01:07:00;;;;;;;13.63;10.13;;;8.20;99.90;;;;;;5249310;28;20216;-68
2021/09/29 01:09:35;;;;;;;13.53;9.33;;;8.20;99.90;;;;;;5249264;28;20231;-73
2021/09/29 01:12:30;;;;;;;13.37;9.50;;;8.20;99.90;;;;;;5248066;28;20624;-68
2021/09/29 01:15:09;;;;;;;16.53;9.57;;;8.20;99.90;;;;;;5248013;28;20245;-71
2021/09/29 01:17:47;;;;;;;14.50;9.63;;;8.10;99.90;;;;;;5249414;28;20218;-67
2021/09/29 01:20:26;;;;;;;12.83;9.10;;;8.10;99.90;;;;;;5249173;28;20517;-69
2021/09/29 01:23:05;;;;;;;12.60;9.13;;;8.10;99.90;;;;;;5249234;28;20224;-70
2021/09/29 01:25:57;;;;;;;12.23;9.80;;;8.10;99.90;;;;;;5248729;28;20308;-71
2021/09/29 01:28:57;;;;;;;13.40;9.53;;;8.10;99.90;;;;;;5249070;28;20208;-70
2021/09/29 01:31:29;;;;;;;12.47;9.17;;;8.00;99.90;;;;;;5248715;28;20244;-69
2021/09/29 01:34:04;;;;;;;15.17;9.37;;;8.00;99.90;;;;;;5248814;28;20205;-69
2021/09/29 01:36:37;;;;;;;17.03;10.00;;;8.00;99.90;;;;;;5248857;28;20732;-69
2021/09/29 01:39:10;;;;;;;13.50;9.40;;;7.90;99.90;;;;;;5248694;28;20220;-69
2021/09/29 01:41:42;;;;;;;13.80;9.50;;;7.90;99.90;;;;;;5248369;28;20342;-68
2021/09/29 01:44:16;;;;;;;12.33;9.53;;;7.90;99.90;;;;;;5248922;28;20555;-68
2021/09/29 01:46:50;;;;;;;13.70;10.10;;;7.90;99.90;;;;;;5247603;28;20239;-72
2021/09/29 01:49:35;;;;;;;12.57;9.33;;;7.90;99.90;;;;;;5248566;28;20195;-72
2021/09/29 01:52:09;;;;;;;14.73;9.93;;;7.90;99.90;;;;;;5248111;28;20236;-69
2021/09/29 01:54:46;;;;;;;13.77;10.17;;;7.80;99.90;;;;;;5247309;28;20201;-69
2021/09/29 01:57:21;;;;;;;13.73;8.53;;;7.80;99.90;;;;;;5250055;28;20232;-69
2021/09/29 01:59:53;;;;;;;13.13;9.00;;;7.80;99.90;;;;;;5248905;28;20204;-70
2021/09/29 02:02:25;;;;;;;13.40;9.27;;;7.90;99.90;;;;;;5247375;28;20252;-70
2021/09/29 02:04:57;;;;;;;14.57;9.50;;;7.80;99.90;;;;;;5247839;28;20231;-71
2021/09/29 02:07:31;;;;;;;13.50;9.33;;;7.80;99.90;;;;;;5247693;28;20224;-70
2021/09/29 02:10:10;;;;;;;13.50;9.57;;;7.80;99.90;;;;;;5248478;28;20212;-69
2021/09/29 02:12:42;;;;;;;14.77;9.07;;;7.80;99.90;;;;;;5248626;28;20504;-70
2021/09/29 02:15:14;;;;;;;13.70;9.73;;;7.80;99.90;;;;;;5248441;28;20650;-73
2021/09/29 02:17:46;;;;;;;13.37;9.57;;;7.80;99.90;;;;;;5252031;28;20205;-71
2021/09/29 02:20:21;;;;;;;13.60;9.57;;;7.80;99.90;;;;;;5251892;28;20209;-68
2021/09/29 02:22:52;;;;;;;15.20;10.03;;;7.80;99.90;;;;;;5251842;28;20247;-68
2021/09/29 02:25:24;;;;;;;16.57;10.03;;;7.80;99.90;;;;;;5251130;28;20204;-71
2021/09/29 02:27:56;;;;;;;14.87;9.70;;;7.80;99.90;;;;;;5251656;28;20216;-70
2021/09/29 02:30:28;;;;;;;12.07;8.70;;;7.70;99.90;;;;;;5252230;28;20227;-69
2021/09/29 02:33:00;;;;;;;17.53;9.87;;;7.70;99.90;;;;;;5251643;28;20228;-68
2021/09/29 02:35:32;;;;;;;15.77;10.07;;;7.70;99.90;;;;;;5252229;28;20217;-71
2021/09/29 02:38:04;;;;;;;17.67;9.27;;;7.70;99.90;;;;;;5251981;28;20240;-74
2021/09/29 02:40:36;;;;;;;11.30;8.13;;;7.70;99.90;;;;;;5251693;28;20201;-70
2021/09/29 02:43:08;;;;;;;12.43;9.03;;;7.70;99.90;;;;;;5251755;28;20240;-69
2021/09/29 02:45:40;;;;;;;12.20;8.87;;;7.60;99.90;;;;;;5251847;28;20212;-68
2021/09/29 02:48:12;;;;;;;13.43;9.20;;;7.70;99.90;;;;;;5250378;28;20548;-72
2021/09/29 02:50:44;;;;;;;11.83;8.93;;;7.70;99.90;;;;;;5251939;28;20300;-74
2021/09/29 02:53:16;;;;;;;13.17;9.10;;;7.60;99.90;;;;;;5251484;28;20228;-71
2021/09/29 02:55:48;;;;;;;13.70;9.13;;;7.60;99.90;;;;;;5251857;28;20532;-69
2021/09/29 02:58:23;;;;;;;11.73;8.60;;;7.60;99.90;;;;;;5250461;28;20239;-69
2021/09/29 03:00:59;;;;;;;14.93;8.63;;;7.60;99.90;;;;;;5250208;28;20236;-70
2021/09/29 03:03:32;;;;;;;13.60;8.37;;;7.60;99.90;;;;;;5251287;28;20335;-68
2021/09/29 03:06:04;;;;;;;14.93;9.40;;;7.60;99.90;;;;;;5251498;28;20208;-67
2021/09/29 03:08:36;;;;;;;13.87;9.00;;;7.60;99.90;;;;;;5250518;28;20229;-67
2021/09/29 03:11:09;;;;;;;13.13;8.57;;;7.60;99.90;;;;;;5251617;28;20201;-69
2021/09/29 03:13:41;;;;;;;13.10;9.30;;;7.60;99.90;;;;;;5251204;28;20229;-69
2021/09/29 03:16:13;;;;;;;13.50;9.13;;;7.60;99.90;;;;;;5251260;28;20232;-69
2021/09/29 03:18:48;;;;;;;14.30;9.20;;;7.60;99.90;;;;;;5250113;28;20306;-66
2021/09/29 03:21:20;;;;;;;12.50;8.33;;;7.60;99.90;;;;;;5250949;28;20227;-69
2021/09/29 03:23:54;;;;;;;13.17;8.90;;;7.60;99.90;;;;;;5250474;28;20240;-69
2021/09/29 03:26:26;;;;;;;12.00;8.60;;;7.60;99.90;;;;;;5249935;28;20218;-70
2021/09/29 03:28:58;;;;;;;11.10;8.57;;;7.60;99.90;;;;;;5249969;28;20559;-70
2021/09/29 03:31:30;;;;;;;12.77;8.47;;;7.60;99.90;;;;;;5250856;28;20228;-70
2021/09/29 03:34:05;;;;;;;13.03;8.83;;;7.60;99.90;;;;;;5250985;28;20239;-68
2021/09/29 03:36:39;;;;;;;12.07;8.63;;;7.60;99.90;;;;;;5250210;28;20513;-68
2021/09/29 03:39:13;;;;;;;12.40;8.30;;;7.60;99.90;;;;;;5250954;28;20220;-70
2021/09/29 03:41:45;;;;;;;13.17;8.10;;;7.60;99.90;;;;;;5250445;28;20280;-69
2021/09/29 03:44:19;;;;;;;11.43;8.47;;;7.50;99.90;;;;;;5250329;28;20225;-69
2021/09/29 03:46:52;;;;;;;11.23;8.20;;;7.50;99.90;;;;;;5250805;28;20223;-73
2021/09/29 03:49:24;;;;;;;15.87;9.20;;;7.50;99.90;;;;;;5250407;28;20308;-71
2021/09/29 03:51:56;;;;;;;12.30;8.37;;;7.50;99.90;;;;;;5249594;28;20585;-73
2021/09/29 03:54:30;;;;;;;12.50;8.57;;;7.50;99.90;;;;;;5250089;28;20228;-73
2021/09/29 03:57:02;;;;;;;14.43;8.87;;;7.40;99.90;;;;;;5249474;28;20205;-70
2021/09/29 03:59:34;;;;;;;13.27;8.77;;;7.40;99.90;;;;;;5250203;28;20228;-71
2021/09/29 04:02:12;;;;;;;13.10;8.20;;;7.40;99.90;;;;;;5249999;28;20336;-71
2021/09/29 04:04:49;;;;;;;13.77;8.20;;;7.40;99.90;;;;;;5249892;28;20679;-71
2021/09/29 04:07:27;;;;;;;11.77;8.40;;;7.40;99.90;;;;;;5250190;28;20215;-69
2021/09/29 04:10:03;;;;;;;11.20;8.40;;;7.40;99.90;;;;;;5250334;28;20579;-70
2021/09/29 04:12:36;;;;;;;13.23;8.57;;;7.30;99.90;;;;;;5250242;28;20586;-70
2021/09/29 04:15:11;;;;;;;11.63;8.37;;;7.30;99.90;;;;;;5248692;28;20246;-68
2021/09/29 04:17:43;;;;;;;12.47;8.87;;;7.30;99.90;;;;;;5250337;28;20202;-69
2021/09/29 04:20:18;;;;;;;12.20;8.57;;;7.30;99.90;;;;;;5250167;28;20233;-71
2021/09/29 04:22:50;;;;;;;14.13;9.23;;;7.30;99.90;;;;;;5249469;28;20238;-71
2021/09/29 04:25:22;;;;;;;14.50;9.30;;;7.20;99.90;;;;;;5250051;28;20232;-70
2021/09/29 04:27:54;;;;;;;13.37;9.20;;;7.20;99.90;;;;;;5249796;28;20208;-68
2021/09/29 04:30:26;;;;;;;13.00;8.67;;;7.20;99.90;;;;;;5249012;28;20237;-70
2021/09/29 04:33:02;;;;;;;14.70;10.00;;;7.20;99.90;;;;;;5249447;28;20552;-69
2021/09/29 04:35:34;;;;;;;14.53;9.27;;;7.10;99.90;;;;;;5249407;28;20243;-71
2021/09/29 04:38:06;;;;;;;16.20;9.67;;;7.10;99.90;;;;;;5249384;28;20215;-71
2021/09/29 04:40:39;;;;;;;14.53;9.40;;;7.10;99.90;;;;;;5231528;28;20229;-71
2021/09/29 04:43:13;;;;;;;15.53;9.77;;;7.10;99.90;;;;;;5249291;28;20250;-67
2021/09/29 04:45:47;;;;;;;18.20;10.47;;;7.10;99.90;;;;;;5249529;28;20224;-70
2021/09/29 04:48:19;;;;;;;15.97;9.87;;;7.10;99.90;;;;;;5249405;28;20199;-69
2021/09/29 04:50:51;;;;;;;13.30;9.67;;;7.10;99.90;;;;;;5249072;28;20232;-69
2021/09/29 04:53:26;;;;;;;13.47;9.30;;;7.10;99.90;;;;;;5270200;28;20189;-68
2021/09/29 04:56:00;;;;;;;14.87;9.83;;;7.10;99.90;;;;;;5248563;28;20222;-62
2021/09/29 04:58:36;;;;;;;14.13;9.33;;;7.10;99.90;;;;;;5248792;28;20189;-64
2021/09/29 05:01:07;;;;;;;13.40;9.37;;;7.10;99.90;;;;;;5246668;28;20235;-65
2021/09/29 05:03:40;;;;;;;17.00;11.10;;;7.20;99.90;;;;;;5249106;28;20212;-65
2021/09/29 05:06:14;;;;;;;15.37;9.83;;;7.20;99.90;;;;;;5248898;28;20220;-64
2021/09/29 05:08:49;;;;;;;16.17;11.20;;;7.20;99.90;;;;;;5243680;28;20196;-64
2021/09/29 05:11:33;;;;;;;19.20;12.00;;;7.30;99.90;;;;;;5249276;28;20509;-67
2021/09/29 05:14:05;;;;;;;17.43;10.80;;;7.40;99.90;;;;;;5250159;28;20580;-66
2021/09/29 05:16:42;;;;;;;17.10;10.77;;;7.40;99.90;;;;;;5249562;28;20236;-65
2021/09/29 05:19:14;;;;;;;18.87;11.23;;;7.50;99.90;;;;;;5249094;28;20202;-64
2021/09/29 05:21:47;;;;;;;14.67;9.80;;;7.50;99.90;;;;;;5249008;28;20240;-64
2021/09/29 05:24:18;;;;;;;15.13;9.90;;;7.60;99.90;;;;;;5248780;28;20221;-67
2021/09/29 05:26:50;;;;;;;16.30;10.03;;;7.70;99.90;;;;;;5249290;28;20225;-63
2021/09/29 05:29:22;;;;;;;16.30;10.03;;;7.70;99.90;;;;;;5248986;28;20192;-65
2021/09/29 05:31:59;;;;;;;16.00;10.40;;;7.80;99.90;;;;;;5247916;28;20223;-68
2021/09/29 05:34:33;;;;;;;18.63;11.17;;;7.80;99.90;;;;;;5248183;28;20226;-62
2021/09/29 05:37:05;;;;;;;16.70;10.73;;;7.90;99.90;;;;;;5248885;28;20203;-68
2021/09/29 05:39:37;;;;;;;18.30;10.30;;;7.90;99.90;;;;;;5248298;28;20227;-64
2021/09/29 05:42:09;;;;;;;15.83;9.80;;;8.00;99.90;;;;;;5249359;28;20205;-63
2021/09/29 05:44:44;;;;;;;16.03;10.60;;;8.00;99.90;;;;;;5248325;28;20190;-64
2021/09/29 05:47:16;;;;;;;15.60;9.57;;;8.10;99.90;;;;;;5248976;28;20218;-62
2021/09/29 05:49:48;;;;;;;15.60;10.77;;;8.10;99.90;;;;;;5248580;28;20205;-65
2021/09/29 05:52:20;;;;;;;17.73;9.97;;;8.20;99.90;;;;;;5251795;28;20219;-64
2021/09/29 05:54:52;;;;;;;19.33;10.37;;;8.30;99.90;;;;;;5254103;28;20350;-65
2021/09/29 05:57:26;;;;;;;16.07;10.40;;;8.30;99.90;;;;;;5253395;28;20561;-65
2021/09/29 05:59:58;;;;;;;14.73;9.70;;;8.40;99.90;;;;;;5251417;28;20200;-61
2021/09/29 06:02:30;;;;;;;12.87;9.27;;;8.40;99.90;;;;;;5252273;28;20261;-66
2021/09/29 06:05:04;;;;;;;15.00;9.10;;;8.50;99.90;;;;;;5233822;28;20202;-64
2021/09/29 06:07:36;;;;;;;15.97;10.37;;;8.50;99.90;;;;;;5231909;28;20212;-62
2021/09/29 06:10:09;;;;;;;14.63;9.30;;;8.60;99.90;;;;;;5231747;28;20209;-61
2021/09/29 06:12:46;;;;;;;15.53;9.50;;;8.70;99.90;;;;;;5231240;28;20214;-66
2021/09/29 06:15:29;;;;;;;13.60;10.03;;;8.80;99.90;;;;;;5245849;28;20200;-66
2021/09/29 06:18:12;;;;;;;15.83;9.23;;;8.90;99.90;;;;;;5250495;28;20224;-67
2021/09/29 06:20:49;;;;;;;14.67;9.90;;;9.00;99.90;;;;;;5251317;28;20204;-68
2021/09/29 06:23:21;;;;;;;16.93;10.47;;;9.20;99.90;;;;;;5251444;28;20236;-66
2021/09/29 06:25:53;;;;;;;15.47;9.60;;;9.40;99.90;;;;;;5252068;28;20216;-69
2021/09/29 06:28:25;;;;;;;14.17;9.97;;;9.70;99.90;;;;;;5251762;28;20593;-65
2021/09/29 06:30:58;;;;;;;17.27;9.80;;;10.10;99.90;;;;;;5251689;28;20193;-64
2021/09/29 06:33:30;;;;;;;16.63;9.20;;;10.50;99.90;;;;;;5251049;28;20219;-65
2021/09/29 06:36:04;;;;;;;13.67;8.57;;;10.90;99.90;;;;;;5263884;28;20205;-63
2021/09/29 06:38:36;;;;;;;15.03;8.20;;;11.40;99.90;;;;;;5252651;28;20603;-68
2021/09/29 06:41:08;;;;;;;15.13;8.37;;;12.10;99.90;;;;;;5251985;28;20232;-68
2021/09/29 06:43:40;;;;;;;15.30;8.37;;;12.90;99.90;;;;;;5251240;28;20217;-66
2021/09/29 06:46:14;;;;;;;18.90;9.00;;;13.60;99.90;;;;;;5251751;28;20519;-64
2021/09/29 06:48:48;;;;;;;12.53;8.13;;;14.40;99.90;;;;;;5250289;28;20265;-65
2021/09/29 06:51:21;;;;;;;13.73;8.53;;;15.10;99.90;;;;;;5250273;28;20609;-67
2021/09/29 06:53:53;;;;;;;12.13;7.93;;;15.60;99.90;;;;;;5251648;28;20216;-66
2021/09/29 06:56:25;;;;;;;10.97;7.33;;;15.60;99.90;;;;;;5250406;28;20204;-63
2021/09/29 06:58:57;;;;;;;11.35;7.60;;;15.60;99.90;;;;;;5251528;28;20200;-65
2021/09/29 07:01:32;;;;;;;10.55;7.50;;;15.80;99.90;;;;;;5250831;28;20244;-67
2021/09/29 07:04:04;;;;;;;10.88;7.60;;;15.60;99.90;;;;;;5251016;28;20231;-67
2021/09/29 07:06:36;;;;;;;13.43;8.03;;;15.40;99.90;;;;;;5250411;28;20205;-64
2021/09/29 07:09:08;;;;;;;10.68;7.40;;;15.20;99.90;;;;;;5250896;28;20201;-62
2021/09/29 07:11:40;;;;;;;11.80;7.47;;;15.20;99.90;;;;;;5250022;28;20527;-55
2021/09/29 07:14:15;;;;;;;9.83;7.20;;;15.30;99.90;;;;;;5251300;28;20636;-58
2021/09/29 07:16:47;;;;;;;11.77;7.93;;;15.20;99.90;;;;;;5249932;28;20193;-58
2021/09/29 07:19:22;;;;;;;15.47;8.90;;;14.70;99.90;;;;;;5250263;28;20208;-72
2021/09/29 07:21:54;;;;;;;13.90;7.87;;;14.20;99.90;;;;;;5251361;28;20633;-68
2021/09/29 07:24:28;;;;;;;12.90;8.97;;;13.70;99.90;;;;;;5251093;28;20216;-67
2021/09/29 07:27:00;;;;;;;13.43;8.83;;;13.20;99.90;;;;;;5250864;28;20235;-68
2021/09/29 07:29:35;;;;;;;14.07;8.80;;;12.70;99.90;;;;;;5250890;28;20504;-70
2021/09/29 07:32:09;;;;;;;14.47;8.40;;;12.50;99.90;;;;;;5250577;28;20246;-70
2021/09/29 07:34:41;;;;;;;13.60;9.17;;;12.20;99.90;;;;;;5250544;28;20211;-69
2021/09/29 07:37:16;;;;;;;14.13;9.27;;;12.20;99.90;;;;;;5251061;28;20567;-69
2021/09/29 07:39:51;;;;;;;17.77;9.10;;;12.10;99.90;;;;;;5249338;28;20518;-69
2021/09/29 07:42:23;;;;;;;14.10;9.33;;;12.10;99.90;;;;;;5250761;28;20228;-70
2021/09/29 07:44:55;;;;;;;19.93;9.87;;;12.20;99.90;;;;;;5250076;28;20220;-68
2021/09/29 07:47:27;;;;;;;14.27;9.47;;;12.40;99.90;;;;;;5250228;28;20197;-70
2021/09/29 07:50:04;;;;;;;15.73;9.13;;;12.40;99.90;;;;;;5250203;28;20202;-71
2021/09/29 07:52:36;;;;;;;16.53;9.53;;;12.40;99.90;;;;;;5250407;28;20225;-66
2021/09/29 07:55:08;;;;;;;13.00;8.73;;;12.50;99.90;;;;;;5250406;28;20212;-67
2021/09/29 07:57:46;;;;;;;17.60;10.13;;;12.50;99.90;;;;;;5249436;28;20236;-68
2021/09/29 08:00:21;;;;;;;11.50;7.70;;;12.60;99.90;;;;;;5250019;28;20208;-68
2021/09/29 08:02:53;;;;;;;18.03;8.97;;;12.80;99.90;;;;;;5249166;28;20531;-57
2021/09/29 08:05:30;;;;;;;14.57;9.50;;;13.00;99.90;;;;;;5249450;28;20204;-51
2021/09/29 08:08:04;;;;;;;17.23;9.70;;;13.30;99.90;;;;;;5249848;28;20224;-55
2021/09/29 08:10:36;;;;;;;12.97;8.50;;;13.40;99.90;;;;;;5250182;28;20516;-72
2021/09/29 08:13:08;;;;;;;13.57;8.03;;;13.20;99.90;;;;;;5249207;28;20237;-70
2021/09/29 08:15:40;;;;;;;13.83;8.67;;;13.20;99.90;;;;;;5248030;28;20209;-69
2021/09/29 08:18:12;;;;;;;14.73;9.50;;;13.20;99.90;;;;;;5249359;28;20541;-68
2021/09/29 08:20:44;;;;;;;14.30;9.00;;;13.20;99.90;;;;;;5249122;28;20209;-71
2021/09/29 08:23:39;;;;;;;13.33;8.50;;;13.30;99.90;;;;;;5250533;28;20558;-70
2021/09/29 08:32:23;;;;;;;11.47;7.90;;;13.20;99.90;;;;;;5249849;28;20197;-69
2021/09/29 08:34:59;;;;;;;13.90;8.27;;;13.10;99.90;;;;;;5249758;28;20211;-69
2021/09/29 08:37:38;;;;;;;12.40;7.60;;;13.20;99.90;;;;;;5249830;28;20208;-69
2021/09/29 08:40:26;;;;;;;13.60;7.83;;;13.30;99.90;;;;;;5249555;28;20280;-69
2021/09/29 08:46:10;;;;;;;11.43;7.73;;;13.60;99.90;;;;;;5249735;28;20659;-67
2021/09/29 08:54:41;;;;;;;14.30;8.07;;;13.50;99.90;;;;;;5249264;28;20233;-68
2021/09/29 09:17:08;;;;;;;12.97;8.20;;;14.10;99.90;;;;;;5248930;28;20200;-70
2021/09/29 09:19:40;;;;;;;12.10;7.30;;;13.80;99.90;;;;;;5246476;28;20229;-70
2021/09/29 09:22:13;;;;;;;11.60;7.33;;;13.80;99.90;;;;;;5249625;28;20640;-69
2021/09/29 09:24:52;;;;;;;15.80;7.63;;;13.80;99.90;;;;;;5247550;28;20531;-68
2021/09/29 09:27:24;;;;;;;14.30;7.53;;;14.00;99.90;;;;;;5253449;28;20299;-67
2021/09/29 09:29:56;;;;;;;10.37;7.07;;;14.00;99.90;;;;;;5253254;28;20225;-70
2021/09/29 09:32:42;;;;;;;12.20;7.67;;;14.00;99.90;;;;;;5253312;28;20521;-66
2021/09/29 09:35:16;;;;;;;11.63;7.17;;;14.10;99.90;;;;;;5255407;28;20238;-66
2021/09/29 09:37:57;;;;;;;11.07;7.17;;;14.20;99.90;;;;;;5252680;28;20203;-68
2021/09/29 09:40:37;;;;;;;9.67;6.50;;;14.20;99.90;;;;;;5253185;28;20243;-65
2021/09/29 09:43:09;;;;;;;12.00;7.60;;;14.30;99.90;;;;;;5251881;28;20243;-67
2021/09/29 09:45:46;;;;;;;10.00;6.93;;;14.30;99.90;;;;;;5252865;28;20232;-68
2021/09/29 09:48:24;;;;;;;9.73;6.83;;;14.30;99.90;;;;;;5253538;28;20200;-69
2021/09/29 09:51:05;;;;;;;10.33;6.63;;;14.50;99.90;;;;;;5252559;28;20220;-69
2021/09/29 09:53:37;;;;;;;10.87;7.37;;;14.70;99.90;;;;;;5251684;28;20213;-63
2021/09/29 09:56:17;;;;;;;9.07;5.63;;;14.80;99.90;;;;;;5251086;28;20225;-65
2021/09/29 09:58:52;;;;;;;9.13;6.43;;;14.90;99.90;;;;;;5252601;28;20185;-63
2021/09/29 10:01:28;;;;;;;7.93;5.60;;;14.90;99.90;;;;;;5252037;28;20342;-65
2021/09/29 10:04:12;;;;;;;10.37;5.60;;;14.90;99.90;;;;;;5252426;28;20346;-63
2021/09/29 10:06:44;;;;;;;8.37;5.50;;;15.00;99.90;;;;;;5252285;28;20253;-61
2021/09/29 10:14:38;;;;;;;9.43;5.87;;;15.10;99.90;;;;;;5252282;28;20217;-66
2021/09/29 10:28:49;;;;;;;10.43;5.80;;;15.20;99.90;;;;;;5252124;28;20629;-69
2021/09/29 10:31:32;;;;;;;11.07;5.57;;;15.20;99.90;;;;;;5251631;28;20208;-66
2021/09/29 10:34:13;;;;;;;11.83;6.53;;;15.20;99.90;;;;;;5251509;28;20208;-68
2021/09/29 10:37:00;;;;;;;10.30;5.43;;;15.20;99.90;;;;;;5250867;28;20218;-69
2021/09/29 10:42:38;;;;;;;8.87;5.17;;;15.20;99.90;;;;;;5251534;28;20224;-68
2021/09/29 10:48:17;;;;;;;7.77;4.77;;;15.30;99.90;;;;;;5250339;28;20416;-68
2021/09/29 11:06:58;;;;;;;7.60;4.03;;;15.90;99.90;;;;;;5251903;28;20492;-67
2021/09/29 11:29:54;;;;;;;9.33;4.87;;;16.50;99.90;;;;;;5250861;28;20236;-69
2021/09/29 11:32:32;;;;;;;11.23;4.70;;;16.40;99.90;;;;;;5250836;28;20517;-70
2021/09/29 11:35:26;;;;;;;10.73;4.73;;;16.40;99.90;;;;;;5250673;28;20545;-67
2021/09/29 11:38:17;;;;;;;7.37;4.97;;;16.40;99.90;;;;;;5250613;28;20197;-66
2021/09/29 12:07:55;;;;;;;9.10;4.87;;;16.30;99.90;;;;;;5249821;28;20589;-69
2021/09/29 12:10:11;;;;;;;10.10;5.57;;;16.40;99.90;;;;;;5250222;28;20518;-68
2021/09/29 12:12:51;;;;;;;7.17;5.30;;;16.20;99.90;;;;;;5249393;28;20193;-66
2021/09/29 12:15:24;;;;;;;10.77;4.73;;;16.10;99.90;;;;;;5250131;28;20563;-66
2021/09/29 12:17:57;;;;;;;6.30;3.83;;;16.20;99.90;;;;;;5249727;28;20213;-68
2021/09/29 12:20:34;;;;;;;8.13;5.10;;;16.20;99.90;;;;;;5250161;28;20200;-68
2021/09/29 12:23:07;;;;;;;9.93;5.70;;;16.10;99.90;;;;;;5249368;28;20203;-69
2021/09/29 12:28:31;;;;;;;7.40;5.20;;;16.20;99.90;;;;;;5250215;28;20212;-66
2021/09/29 12:36:40;;;;;;;6.80;4.67;;;16.30;99.90;;;;;;5249394;28;20197;-72
2021/09/29 12:39:28;;;;;;;9.07;5.27;;;16.40;99.90;;;;;;5249011;28;20211;-68
2021/09/29 12:42:00;;;;;;;9.57;5.30;;;16.40;99.90;;;;;;5249609;28;20550;-71
2021/09/29 12:44:33;;;;;;;8.23;4.67;;;16.30;99.90;;;;;;5249932;28;20620;-66
2021/09/29 12:49:37;;;;;;;11.60;5.50;;;16.40;99.90;;;;;;5249437;28;20197;-70
2021/09/29 12:52:12;;;;;;;10.03;4.70;;;16.30;99.90;;;;;;5249057;28;20208;-68
2021/09/29 12:54:48;;;;;;;11.20;5.23;;;16.30;99.90;;;;;;5248134;28;20208;-68
2021/09/29 12:57:28;;;;;;;13.33;6.20;;;16.30;99.90;;;;;;5249206;28;20203;-72
2021/09/29 13:00:00;;;;;;;7.80;5.30;;;16.30;99.90;;;;;;5248546;28;20208;-68
2021/09/29 13:02:32;;;;;;;13.30;5.87;;;16.10;99.90;;;;;;5248777;28;20236;-69
2021/09/29 13:05:05;;;;;;;10.47;5.13;;;16.20;99.90;;;;;;5249122;28;20251;-67
2021/09/29 13:07:37;;;;;;;6.53;5.00;;;16.20;99.90;;;;;;5248929;28;20201;-67
2021/09/29 13:10:11;;;;;;;8.80;5.60;;;16.30;99.90;;;;;;5249093;28;20203;-65
2021/09/29 13:12:43;;;;;;;10.53;5.63;;;16.30;99.90;;;;;;5247925;28;20200;-70
2021/09/29 13:15:21;;;;;;;9.97;5.17;;;16.10;99.90;;;;;;5248162;28;20778;-67
2021/09/29 13:17:55;;;;;;;10.87;5.23;;;16.00;99.90;;;;;;5248984;28;20251;-69
2021/09/29 13:20:30;;;;;;;9.97;5.40;;;16.00;99.90;;;;;;5248914;28;20204;-68
2021/09/29 13:23:12;;;;;;;12.10;5.90;;;15.90;99.90;;;;;;5246759;28;20200;-71
2021/09/29 13:36:55;;;;;;;13.50;5.93;;;15.70;99.90;;;;;;5249340;28;20205;-67
2021/09/29 13:39:30;;;;;;;8.20;5.37;;;15.80;99.90;;;;;;5247898;28;20252;-69
2021/09/29 13:42:03;;;;;;;8.83;5.93;;;15.80;99.90;;;;;;5248858;28;20204;-70
2021/09/29 13:44:35;;;;;;;8.60;5.53;;;15.90;99.90;;;;;;5248004;28;20240;-68
2021/09/29 13:47:07;;;;;;;11.37;5.97;;;16.00;99.90;;;;;;5248860;28;20222;-69
2021/09/29 13:49:39;;;;;;;7.77;5.43;;;16.00;99.90;;;;;;5248180;28;20278;-71
2021/09/29 13:52:15;;;;;;;8.80;5.73;;;16.00;99.90;;;;;;5249012;28;20232;-68
2021/09/29 13:54:52;;;;;;;11.43;5.43;;;16.00;99.90;;;;;;5248375;28;20285;-70
2021/09/29 13:57:30;;;;;;;12.93;5.40;;;16.00;99.90;;;;;;5248736;28;20266;-71
2021/09/29 14:03:00;;;;;;;11.97;5.53;;;16.40;99.90;;;;;;5247897;28;20240;-67
2021/09/29 14:28:44;;;;;;;9.43;5.60;;;16.40;99.90;;;;;;5250763;28;20196;-70
2021/09/29 14:31:20;;;;;;;10.43;5.23;;;16.30;99.90;;;;;;5249212;28;20244;-68
2021/09/29 14:33:54;;;;;;;12.10;5.60;;;16.20;99.90;;;;;;5250552;28;20208;-66
2021/09/29 14:36:29;;;;;;;12.13;5.80;;;16.20;99.90;;;;;;5250032;28;20232;-69
2021/09/29 14:39:00;;;;;;;10.20;5.27;;;16.00;99.90;;;;;;5250492;28;20212;-70
2021/09/29 14:41:33;;;;;;;11.53;5.50;;;16.00;99.90;;;;;;5250929;28;20258;-72
2021/09/29 14:44:05;;;;;;;10.53;5.50;;;16.00;99.90;;;;;;5251794;28;20201;-64
2021/09/29 14:46:38;;;;;;;9.87;5.73;;;15.90;99.90;;;;;;5251167;28;20637;-68
2021/09/29 14:49:09;;;;;;;16.63;5.60;;;15.80;99.90;;;;;;5251771;28;20552;-65
2021/09/29 14:51:41;;;;;;;13.90;5.37;;;15.70;99.90;;;;;;5250110;28;20215;-66
2021/09/29 14:54:14;;;;;;;13.27;5.20;;;15.60;99.90;;;;;;5252310;28;20577;-67
2021/09/29 14:56:46;;;;;;;10.43;5.13;;;15.50;99.90;;;;;;5251206;28;20205;-66
2021/09/29 14:59:21;;;;;;;9.87;5.40;;;15.40;99.90;;;;;;5252086;28;20196;-64
2021/09/29 15:01:53;;;;;;;15.47;6.00;;;15.30;99.90;;;;;;5251294;28;20247;-64
2021/09/29 15:04:25;;;;;;;10.33;5.63;;;15.30;99.90;;;;;;5250991;28;20197;-66
2021/09/29 15:07:03;;;;;;;10.53;6.53;;;15.30;99.90;;;;;;5247273;28;20200;-62
2021/09/29 15:09:38;;;;;;;11.10;5.60;;;15.20;99.90;;;;;;5283454;28;20639;-66
2021/09/29 15:12:10;;;;;;;17.03;6.20;;;15.10;99.90;;;;;;5251277;28;20230;-63
2021/09/29 15:15:01;;;;;;;9.43;5.50;;;15.10;99.90;;;;;;5266152;28;20208;-65
2021/09/29 15:17:42;;;;;;;12.70;5.50;;;15.10;99.90;;;;;;5264539;28;20213;-68
2021/09/29 15:46:57;;;;;;;12.60;5.17;;;14.30;99.90;;;;;;5249609;28;20544;-66
2021/09/29 15:52:27;;;;;;;14.30;5.40;;;14.20;99.90;;;;;;5250697;28;20598;-67
2021/09/29 15:55:12;;;;;;;14.13;5.50;;;14.10;99.90;;;;;;5249296;28;20271;-63
2021/09/29 15:58:04;;;;;;;15.93;5.83;;;14.10;99.90;;;;;;5250393;28;20574;-65
2021/09/29 16:00:47;;;;;;;16.03;5.93;;;14.10;99.90;;;;;;5249988;28;20239;-64
2021/09/29 16:31:04;;;;;;;14.93;4.93;;;13.90;99.90;;;;;;5248207;28;20225;-65
2021/09/29 16:36:15;;;;;;;11.50;5.27;;;13.80;99.90;;;;;;5248297;28;20487;-69
2021/09/29 16:38:47;;;;;;;17.90;5.23;;;13.80;99.90;;;;;;5249013;28;20517;-69
2021/09/29 16:41:20;;;;;;;18.17;5.63;;;13.80;99.90;;;;;;5247860;28;20244;-66
2021/09/29 16:43:57;;;;;;;14.97;5.40;;;13.70;99.90;;;;;;5246991;28;20205;-70
2021/09/29 16:46:34;;;;;;;17.57;6.30;;;13.70;99.90;;;;;;5247597;28;20240;-66
2021/09/29 16:49:16;;;;;;;13.23;5.20;;;13.60;99.90;;;;;;5249393;28;20235;-69
2021/09/29 16:51:51;;;;;;;13.27;5.33;;;13.60;99.90;;;;;;5249034;28;20236;-69
2021/09/29 16:54:25;;;;;;;12.60;5.17;;;13.50;99.90;;;;;;5250470;28;20519;-70
2021/09/29 16:56:59;;;;;;;12.77;5.07;;;13.50;99.90;;;;;;5242257;28;20221;-68
2021/09/29 17:02:16;;;;;;;12.47;5.03;;;13.50;99.90;;;;;;5248145;28;20240;-64
2021/09/29 17:04:49;;;;;;;12.40;5.20;;;13.40;99.90;;;;;;5255153;28;20275;-67
2021/09/29 17:07:24;;;;;;;14.17;5.37;;;13.40;99.90;;;;;;5249168;28;20596;-67
2021/09/29 17:09:55;;;;;;;18.73;6.17;;;13.30;99.90;;;;;;5249203;28;20212;-67
2021/09/29 17:12:33;;;;;;;14.03;5.77;;;13.30;99.90;;;;;;5253379;28;20226;-65